sensor_id;sensor_type;location;lat;lon;timestamp;temperature;humidity
52849;DHT22;38714;53.180;5.812;2022-10-22T00:00:06;11.70;99.90
52849;DHT22;38714;53.180;5.812;2022-10-22T00:02:32;11.70;99.90
52849;DHT22;38714;53.180;5.812;2022-10-22T00:04:58;11.60;99.90
52849;DHT22;38714;53.180;5.812;2022-10-22T00:07:24;11.60;99.90
52849;DHT22;38714;53.180;5.812;2022-10-22T00:09:49;11.60;99.90
52849;DHT22;38714;53.180;5.812;2022-10-22T00:12:16;11.60;99.90
52849;DHT22;38714;53.180;5.812;2022-10-22T00:14:42;11.60;99.90
52849;DHT22;38714;53.180;5.812;2022-10-22T00:17:08;11.60;99.90
52849;DHT22;38714;53.180;5.812;2022-10-22T00:19:34;11.50;99.90
52849;DHT22;38714;53.180;5.812;2022-10-22T00:21:59;11.50;99.90
52849;DHT22;38714;53.180;5.812;2022-10-22T00:24:26;11.50;99.90
52849;DHT22;38714;53.180;5.812;2022-10-22T00:26:52;11.50;99.90
52849;DHT22;38714;53.180;5.812;2022-10-22T00:29:18;11.40;99.90
52849;DHT22;38714;53.180;5.812;2022-10-22T00:31:44;11.40;99.90
52849;DHT22;38714;53.180;5.812;2022-10-22T00:34:15;11.40;99.90
52849;DHT22;38714;53.180;5.812;2022-10-22T00:36:41;11.30;99.90
52849;DHT22;38714;53.180;5.812;2022-10-22T00:39:07;11.30;99.90
52849;DHT22;38714;53.180;5.812;2022-10-22T00:41:32;11.20;99.90
52849;DHT22;38714;53.180;5.812;2022-10-22T00:44:03;11.20;99.90
52849;DHT22;38714;53.180;5.812;2022-10-22T00:46:29;11.20;99.90
52849;DHT22;38714;53.180;5.812;2022-10-22T00:49:00;11.20;99.90
52849;DHT22;38714;53.180;5.812;2022-10-22T00:51:29;11.20;99.90
52849;DHT22;38714;53.180;5.812;2022-10-22T00:54:01;11.20;99.90
52849;DHT22;38714;53.180;5.812;2022-10-22T00:56:27;11.20;99.90
52849;DHT22;38714;53.180;5.812;2022-10-22T00:58:56;11.20;99.90
52849;DHT22;38714;53.180;5.812;2022-10-22T01:01:25;11.20;99.90
52849;DHT22;38714;53.180;5.812;2022-10-22T01:03:52;11.20;99.90
52849;DHT22;38714;53.180;5.812;2022-10-22T01:06:22;11.10;99.90
52849;DHT22;38714;53.180;5.812;2022-10-22T01:08:56;11.10;99.90
52849;DHT22;38714;53.180;5.812;2022-10-22T01:14:16;11.10;99.90
52849;DHT22;38714;53.180;5.812;2022-10-22T01:16:47;11.10;99.90
52849;DHT22;38714;53.180;5.812;2022-10-22T01:22:06;11.00;99.90
52849;DHT22;38714;53.180;5.812;2022-10-22T01:27:29;11.00;99.90
52849;DHT22;38714;53.180;5.812;2022-10-22T01:30:00;11.10;99.90
52849;DHT22;38714;53.180;5.812;2022-10-22T01:32:28;11.10;99.90
52849;DHT22;38714;53.180;5.812;2022-10-22T01:35:02;11.10;99.90
52849;DHT22;38714;53.180;5.812;2022-10-22T01:37:30;11.10;99.90
52849;DHT22;38714;53.180;5.812;2022-10-22T01:39:58;11.10;99.90
52849;DHT22;38714;53.180;5.812;2022-10-22T01:42:24;11.10;99.90
52849;DHT22;38714;53.180;5.812;2022-10-22T01:44:50;11.20;99.90
52849;DHT22;38714;53.180;5.812;2022-10-22T02:01:02;11.20;99.90
52849;DHT22;38714;53.180;5.812;2022-10-22T02:03:38;11.30;99.90
52849;DHT22;38714;53.180;5.812;2022-10-22T02:06:08;11.30;99.90
52849;DHT22;38714;53.180;5.812;2022-10-22T02:08:36;11.30;99.90
52849;DHT22;38714;53.180;5.812;2022-10-22T02:11:02;11.40;99.90
52849;DHT22;38714;53.180;5.812;2022-10-22T02:13:40;11.40;99.90
52849;DHT22;38714;53.180;5.812;2022-10-22T02:16:08;11.30;99.90
52849;DHT22;38714;53.180;5.812;2022-10-22T02:18:38;11.40;99.90
52849;DHT22;38714;53.180;5.812;2022-10-22T02:21:05;11.40;99.90
52849;DHT22;38714;53.180;5.812;2022-10-22T02:23:31;11.40;99.90
52849;DHT22;38714;53.180;5.812;2022-10-22T02:26:02;11.40;99.90
52849;DHT22;38714;53.180;5.812;2022-10-22T02:31:09;11.50;99.90
52849;DHT22;38714;53.180;5.812;2022-10-22T02:33:44;11.50;99.90
52849;DHT22;38714;53.180;5.812;2022-10-22T02:36:12;11.50;99.90
52849;DHT22;38714;53.180;5.812;2022-10-22T02:38:39;11.50;99.90
52849;DHT22;38714;53.180;5.812;2022-10-22T02:41:06;11.60;99.90
52849;DHT22;38714;53.180;5.812;2022-10-22T02:43:39;11.60;99.90
52849;DHT22;38714;53.180;5.812;2022-10-22T02:46:06;11.60;99.90
52849;DHT22;38714;53.180;5.812;2022-10-22T02:48:31;11.60;99.90
52849;DHT22;38714;53.180;5.812;2022-10-22T02:50:57;11.60;99.90
52849;DHT22;38714;53.180;5.812;2022-10-22T02:53:22;11.60;99.90
52849;DHT22;38714;53.180;5.812;2022-10-22T02:55:48;11.60;99.90
52849;DHT22;38714;53.180;5.812;2022-10-22T02:58:13;11.70;99.90
52849;DHT22;38714;53.180;5.812;2022-10-22T03:00:39;11.70;99.90
52849;DHT22;38714;53.180;5.812;2022-10-22T03:03:04;11.70;99.90
52849;DHT22;38714;53.180;5.812;2022-10-22T03:05:30;11.70;99.90
52849;DHT22;38714;53.180;5.812;2022-10-22T03:07:55;11.70;99.90
52849;DHT22;38714;53.180;5.812;2022-10-22T03:10:21;11.80;99.90
52849;DHT22;38714;53.180;5.812;2022-10-22T03:12:46;11.80;99.90
52849;DHT22;38714;53.180;5.812;2022-10-22T03:15:12;11.80;99.90
52849;DHT22;38714;53.180;5.812;2022-10-22T03:17:38;11.80;99.90
52849;DHT22;38714;53.180;5.812;2022-10-22T03:20:04;11.80;99.90
52849;DHT22;38714;53.180;5.812;2022-10-22T03:22:31;11.80;99.90
52849;DHT22;38714;53.180;5.812;2022-10-22T03:25:02;11.80;99.90
52849;DHT22;38714;53.180;5.812;2022-10-22T03:27:29;11.90;99.90
52849;DHT22;38714;53.180;5.812;2022-10-22T03:29:56;11.90;99.90
52849;DHT22;38714;53.180;5.812;2022-10-22T03:32:22;11.90;99.90
52849;DHT22;38714;53.180;5.812;2022-10-22T03:34:48;11.90;99.90
52849;DHT22;38714;53.180;5.812;2022-10-22T03:37:14;11.90;99.90
52849;DHT22;38714;53.180;5.812;2022-10-22T03:39:39;12.00;99.90
52849;DHT22;38714;53.180;5.812;2022-10-22T03:42:06;12.00;99.90
52849;DHT22;38714;53.180;5.812;2022-10-22T03:44:32;12.00;99.90
52849;DHT22;38714;53.180;5.812;2022-10-22T03:46:57;12.00;99.90
52849;DHT22;38714;53.180;5.812;2022-10-22T03:49:23;12.00;99.90
52849;DHT22;38714;53.180;5.812;2022-10-22T03:51:49;12.00;99.90
52849;DHT22;38714;53.180;5.812;2022-10-22T03:54:15;12.00;99.90
52849;DHT22;38714;53.180;5.812;2022-10-22T03:56:41;12.00;99.90
52849;DHT22;38714;53.180;5.812;2022-10-22T03:59:06;12.00;99.90
52849;DHT22;38714;53.180;5.812;2022-10-22T04:01:32;11.90;99.90
52849;DHT22;38714;53.180;5.812;2022-10-22T04:03:58;11.90;99.90
52849;DHT22;38714;53.180;5.812;2022-10-22T04:06:24;11.90;99.90
52849;DHT22;38714;53.180;5.812;2022-10-22T04:08:50;11.90;99.90
52849;DHT22;38714;53.180;5.812;2022-10-22T04:11:16;11.90;99.90
52849;DHT22;38714;53.180;5.812;2022-10-22T04:13:43;11.90;99.90
52849;DHT22;38714;53.180;5.812;2022-10-22T04:16:14;11.90;99.90
52849;DHT22;38714;53.180;5.812;2022-10-22T04:18:41;11.90;99.90
52849;DHT22;38714;53.180;5.812;2022-10-22T04:21:09;11.90;99.90
52849;DHT22;38714;53.180;5.812;2022-10-22T04:23:35;11.90;99.90
52849;DHT22;38714;53.180;5.812;2022-10-22T04:26:05;11.90;99.90
52849;DHT22;38714;53.180;5.812;2022-10-22T04:28:32;11.90;99.90
52849;DHT22;38714;53.180;5.812;2022-10-22T04:30:57;11.90;99.90
52849;DHT22;38714;53.180;5.812;2022-10-22T04:33:23;11.90;99.90
52849;DHT22;38714;53.180;5.812;2022-10-22T04:35:49;11.90;99.90
52849;DHT22;38714;53.180;5.812;2022-10-22T04:38:15;11.80;99.90
52849;DHT22;38714;53.180;5.812;2022-10-22T04:40:41;11.90;99.90
52849;DHT22;38714;53.180;5.812;2022-10-22T04:43:06;11.80;99.90
52849;DHT22;38714;53.180;5.812;2022-10-22T04:45:33;11.80;99.90
52849;DHT22;38714;53.180;5.812;2022-10-22T04:47:59;11.90;99.90
52849;DHT22;38714;53.180;5.812;2022-10-22T04:50:24;11.90;99.90
52849;DHT22;38714;53.180;5.812;2022-10-22T04:52:50;11.90;99.90
52849;DHT22;38714;53.180;5.812;2022-10-22T04:55:16;11.90;99.90
52849;DHT22;38714;53.180;5.812;2022-10-22T04:57:41;11.90;99.90
52849;DHT22;38714;53.180;5.812;2022-10-22T05:00:08;11.90;99.90
52849;DHT22;38714;53.180;5.812;2022-10-22T05:02:34;11.90;99.90
52849;DHT22;38714;53.180;5.812;2022-10-22T05:05:00;11.90;99.90
52849;DHT22;38714;53.180;5.812;2022-10-22T05:07:26;11.90;99.90
52849;DHT22;38714;53.180;5.812;2022-10-22T05:09:52;11.90;99.90
52849;DHT22;38714;53.180;5.812;2022-10-22T05:12:18;11.90;99.90
52849;DHT22;38714;53.180;5.812;2022-10-22T05:14:44;11.90;99.90
52849;DHT22;38714;53.180;5.812;2022-10-22T05:17:09;11.90;99.90
52849;DHT22;38714;53.180;5.812;2022-10-22T05:19:35;11.90;99.90
52849;DHT22;38714;53.180;5.812;2022-10-22T05:22:02;11.90;99.90
52849;DHT22;38714;53.180;5.812;2022-10-22T05:24:29;12.00;99.90
52849;DHT22;38714;53.180;5.812;2022-10-22T05:26:57;12.00;99.90
52849;DHT22;38714;53.180;5.812;2022-10-22T05:29:23;11.90;99.90
52849;DHT22;38714;53.180;5.812;2022-10-22T05:31:49;12.00;99.90
52849;DHT22;38714;53.180;5.812;2022-10-22T05:34:15;12.00;99.90
52849;DHT22;38714;53.180;5.812;2022-10-22T05:36:41;11.90;99.90
52849;DHT22;38714;53.180;5.812;2022-10-22T05:39:06;12.00;99.90
52849;DHT22;38714;53.180;5.812;2022-10-22T05:41:33;12.00;99.90
52849;DHT22;38714;53.180;5.812;2022-10-22T05:44:00;12.00;99.90
52849;DHT22;38714;53.180;5.812;2022-10-22T05:46:28;12.00;99.90
52849;DHT22;38714;53.180;5.812;2022-10-22T05:48:59;12.00;99.90
52849;DHT22;38714;53.180;5.812;2022-10-22T05:51:27;12.00;99.90
52849;DHT22;38714;53.180;5.812;2022-10-22T05:53:59;12.00;99.90
52849;DHT22;38714;53.180;5.812;2022-10-22T05:56:26;12.00;99.90
52849;DHT22;38714;53.180;5.812;2022-10-22T05:58:53;12.00;99.90
52849;DHT22;38714;53.180;5.812;2022-10-22T06:01:22;12.00;99.90
52849;DHT22;38714;53.180;5.812;2022-10-22T06:03:48;12.00;99.90
52849;DHT22;38714;53.180;5.812;2022-10-22T06:06:29;12.00;99.90
52849;DHT22;38714;53.180;5.812;2022-10-22T06:09:00;12.00;99.90
52849;DHT22;38714;53.180;5.812;2022-10-22T06:11:26;12.00;99.90
52849;DHT22;38714;53.180;5.812;2022-10-22T06:13:52;12.00;99.90
52849;DHT22;38714;53.180;5.812;2022-10-22T06:16:18;12.00;99.90
52849;DHT22;38714;53.180;5.812;2022-10-22T06:18:43;12.00;99.90
52849;DHT22;38714;53.180;5.812;2022-10-22T06:21:11;12.00;99.90
52849;DHT22;38714;53.180;5.812;2022-10-22T06:23:37;12.10;99.90
52849;DHT22;38714;53.180;5.812;2022-10-22T06:26:04;12.10;99.90
52849;DHT22;38714;53.180;5.812;2022-10-22T06:28:30;12.10;99.90
52849;DHT22;38714;53.180;5.812;2022-10-22T06:31:00;12.00;99.90
52849;DHT22;38714;53.180;5.812;2022-10-22T06:33:27;12.10;99.90
52849;DHT22;38714;53.180;5.812;2022-10-22T06:35:53;12.10;99.90
52849;DHT22;38714;53.180;5.812;2022-10-22T06:38:19;12.00;99.90
52849;DHT22;38714;53.180;5.812;2022-10-22T06:40:45;12.10;99.90
52849;DHT22;38714;53.180;5.812;2022-10-22T06:43:12;12.00;99.90
52849;DHT22;38714;53.180;5.812;2022-10-22T06:45:38;12.10;99.90
52849;DHT22;38714;53.180;5.812;2022-10-22T06:48:04;12.00;99.90
52849;DHT22;38714;53.180;5.812;2022-10-22T06:50:30;12.00;99.90
52849;DHT22;38714;53.180;5.812;2022-10-22T06:52:56;12.00;99.90
52849;DHT22;38714;53.180;5.812;2022-10-22T06:55:22;12.00;99.90
52849;DHT22;38714;53.180;5.812;2022-10-22T06:57:47;12.00;99.90
52849;DHT22;38714;53.180;5.812;2022-10-22T07:00:13;12.00;99.90
52849;DHT22;38714;53.180;5.812;2022-10-22T07:02:38;12.10;99.90
52849;DHT22;38714;53.180;5.812;2022-10-22T07:05:05;12.00;99.90
52849;DHT22;38714;53.180;5.812;2022-10-22T07:07:30;12.10;99.90
52849;DHT22;38714;53.180;5.812;2022-10-22T07:09:56;12.10;99.90
52849;DHT22;38714;53.180;5.812;2022-10-22T07:12:21;12.10;99.90
52849;DHT22;38714;53.180;5.812;2022-10-22T07:14:48;12.10;99.90
52849;DHT22;38714;53.180;5.812;2022-10-22T07:17:14;12.10;99.90
52849;DHT22;38714;53.180;5.812;2022-10-22T07:19:39;12.20;99.90
52849;DHT22;38714;53.180;5.812;2022-10-22T07:22:05;12.20;99.90
52849;DHT22;38714;53.180;5.812;2022-10-22T07:24:31;12.30;99.90
52849;DHT22;38714;53.180;5.812;2022-10-22T07:26:56;12.30;99.90
52849;DHT22;38714;53.180;5.812;2022-10-22T07:29:22;12.30;99.90
52849;DHT22;38714;53.180;5.812;2022-10-22T07:31:48;12.30;99.90
52849;DHT22;38714;53.180;5.812;2022-10-22T07:34:13;12.30;99.90
52849;DHT22;38714;53.180;5.812;2022-10-22T07:36:39;12.40;99.90
52849;DHT22;38714;53.180;5.812;2022-10-22T07:39:04;12.40;99.90
52849;DHT22;38714;53.180;5.812;2022-10-22T07:41:30;12.40;99.90
52849;DHT22;38714;53.180;5.812;2022-10-22T07:43:56;12.40;99.90
52849;DHT22;38714;53.180;5.812;2022-10-22T07:46:23;12.40;99.90
52849;DHT22;38714;53.180;5.812;2022-10-22T07:48:49;12.40;99.90
52849;DHT22;38714;53.180;5.812;2022-10-22T07:51:15;12.50;99.90
52849;DHT22;38714;53.180;5.812;2022-10-22T07:53:40;12.40;99.90
52849;DHT22;38714;53.180;5.812;2022-10-22T07:56:06;12.50;99.90
52849;DHT22;38714;53.180;5.812;2022-10-22T07:58:32;12.50;99.90
52849;DHT22;38714;53.180;5.812;2022-10-22T08:01:00;12.50;99.90
52849;DHT22;38714;53.180;5.812;2022-10-22T08:03:26;12.50;99.90
52849;DHT22;38714;53.180;5.812;2022-10-22T08:05:53;12.50;99.90
52849;DHT22;38714;53.180;5.812;2022-10-22T08:08:19;12.60;99.90
52849;DHT22;38714;53.180;5.812;2022-10-22T08:10:45;12.70;99.90
52849;DHT22;38714;53.180;5.812;2022-10-22T08:13:11;12.70;99.90
52849;DHT22;38714;53.180;5.812;2022-10-22T08:15:37;12.70;99.90
52849;DHT22;38714;53.180;5.812;2022-10-22T08:18:03;12.80;99.90
52849;DHT22;38714;53.180;5.812;2022-10-22T08:20:28;12.80;99.90
52849;DHT22;38714;53.180;5.812;2022-10-22T08:22:54;12.90;99.90
52849;DHT22;38714;53.180;5.812;2022-10-22T08:25:20;13.00;99.90
52849;DHT22;38714;53.180;5.812;2022-10-22T08:27:45;13.00;99.90
52849;DHT22;38714;53.180;5.812;2022-10-22T08:30:11;13.10;99.90
52849;DHT22;38714;53.180;5.812;2022-10-22T08:32:37;13.20;99.90
52849;DHT22;38714;53.180;5.812;2022-10-22T08:35:03;13.20;99.90
52849;DHT22;38714;53.180;5.812;2022-10-22T08:37:29;13.30;99.90
52849;DHT22;38714;53.180;5.812;2022-10-22T08:39:54;13.30;99.90
52849;DHT22;38714;53.180;5.812;2022-10-22T08:45:41;13.40;99.90
52849;DHT22;38714;53.180;5.812;2022-10-22T08:48:27;13.50;99.90
52849;DHT22;38714;53.180;5.812;2022-10-22T08:50:56;13.60;99.90
52849;DHT22;38714;53.180;5.812;2022-10-22T08:53:29;13.50;99.90
52849;DHT22;38714;53.180;5.812;2022-10-22T08:55:57;13.60;99.90
52849;DHT22;38714;53.180;5.812;2022-10-22T08:58:31;13.60;99.90
52849;DHT22;38714;53.180;5.812;2022-10-22T09:01:04;13.70;99.90
52849;DHT22;38714;53.180;5.812;2022-10-22T09:03:52;13.80;99.90
52849;DHT22;38714;53.180;5.812;2022-10-22T09:06:25;13.80;99.90
52849;DHT22;38714;53.180;5.812;2022-10-22T09:08:51;13.80;99.90
52849;DHT22;38714;53.180;5.812;2022-10-22T09:11:30;13.80;99.90
52849;DHT22;38714;53.180;5.812;2022-10-22T09:13:57;13.90;99.90
52849;DHT22;38714;53.180;5.812;2022-10-22T09:19:35;13.90;99.90
52849;DHT22;38714;53.180;5.812;2022-10-22T09:25:13;14.00;99.90
52849;DHT22;38714;53.180;5.812;2022-10-22T09:27:40;14.00;99.90
52849;DHT22;38714;53.180;5.812;2022-10-22T09:30:09;14.00;99.90
52849;DHT22;38714;53.180;5.812;2022-10-22T09:32:36;14.00;99.90
52849;DHT22;38714;53.180;5.812;2022-10-22T09:35:01;14.10;99.90
52849;DHT22;38714;53.180;5.812;2022-10-22T09:37:28;14.10;99.90
52849;DHT22;38714;53.180;5.812;2022-10-22T09:39:55;14.10;99.90
52849;DHT22;38714;53.180;5.812;2022-10-22T09:42:23;14.10;99.90
52849;DHT22;38714;53.180;5.812;2022-10-22T09:44:57;14.10;99.90
52849;DHT22;38714;53.180;5.812;2022-10-22T09:47:33;14.20;99.90
52849;DHT22;38714;53.180;5.812;2022-10-22T09:50:24;14.20;99.90
52849;DHT22;38714;53.180;5.812;2022-10-22T09:53:27;14.20;99.90
52849;DHT22;38714;53.180;5.812;2022-10-22T09:55:57;14.20;99.90
52849;DHT22;38714;53.180;5.812;2022-10-22T09:58:23;14.30;99.90
52849;DHT22;38714;53.180;5.812;2022-10-22T10:00:59;14.30;99.90
52849;DHT22;38714;53.180;5.812;2022-10-22T10:03:28;14.30;99.90
52849;DHT22;38714;53.180;5.812;2022-10-22T10:05:58;14.30;99.90
52849;DHT22;38714;53.180;5.812;2022-10-22T10:08:24;14.40;99.90
52849;DHT22;38714;53.180;5.812;2022-10-22T10:10:58;14.40;99.90
52849;DHT22;38714;53.180;5.812;2022-10-22T10:21:41;14.40;99.90
52849;DHT22;38714;53.180;5.812;2022-10-22T10:27:06;14.60;99.90
52849;DHT22;38714;53.180;5.812;2022-10-22T10:30:04;14.60;99.90
52849;DHT22;38714;53.180;5.812;2022-10-22T10:43:42;14.70;99.90
52849;DHT22;38714;53.180;5.812;2022-10-22T10:49:19;14.70;99.90
52849;DHT22;38714;53.180;5.812;2022-10-22T10:52:25;14.70;99.90
52849;DHT22;38714;53.180;5.812;2022-10-22T10:57:54;14.60;99.90
52849;DHT22;38714;53.180;5.812;2022-10-22T11:00:21;14.60;99.90
52849;DHT22;38714;53.180;5.812;2022-10-22T11:05:54;14.50;99.90
52849;DHT22;38714;53.180;5.812;2022-10-22T11:08:46;14.60;99.90
52849;DHT22;38714;53.180;5.812;2022-10-22T11:11:47;14.60;99.90
52849;DHT22;38714;53.180;5.812;2022-10-22T11:14:22;14.60;99.90
52849;DHT22;38714;53.180;5.812;2022-10-22T11:17:09;14.70;99.90
52849;DHT22;38714;53.180;5.812;2022-10-22T11:22:34;14.70;99.90
52849;DHT22;38714;53.180;5.812;2022-10-22T11:30:23;14.80;99.90
52849;DHT22;38714;53.180;5.812;2022-10-22T11:33:01;14.80;99.90
52849;DHT22;38714;53.180;5.812;2022-10-22T11:35:37;14.80;99.90
52849;DHT22;38714;53.180;5.812;2022-10-22T11:38:05;14.80;99.90
52849;DHT22;38714;53.180;5.812;2022-10-22T11:40:35;14.80;99.90
52849;DHT22;38714;53.180;5.812;2022-10-22T11:43:07;14.80;99.90
52849;DHT22;38714;53.180;5.812;2022-10-22T11:45:40;14.80;99.90
52849;DHT22;38714;53.180;5.812;2022-10-22T11:53:17;14.70;99.90
52849;DHT22;38714;53.180;5.812;2022-10-22T11:55:49;14.80;99.90
52849;DHT22;38714;53.180;5.812;2022-10-22T11:58:29;14.80;99.90
52849;DHT22;38714;53.180;5.812;2022-10-22T12:12:09;15.00;99.90
52849;DHT22;38714;53.180;5.812;2022-10-22T12:14:33;15.10;99.90
52849;DHT22;38714;53.180;5.812;2022-10-22T12:17:12;15.10;99.90
52849;DHT22;38714;53.180;5.812;2022-10-22T12:19:41;15.20;99.90
52849;DHT22;38714;53.180;5.812;2022-10-22T12:24:39;15.20;99.90
52849;DHT22;38714;53.180;5.812;2022-10-22T12:27:23;15.30;99.90
52849;DHT22;38714;53.180;5.812;2022-10-22T12:29:55;15.30;99.90
52849;DHT22;38714;53.180;5.812;2022-10-22T12:32:21;15.30;99.90
52849;DHT22;38714;53.180;5.812;2022-10-22T12:34:49;15.30;99.90
52849;DHT22;38714;53.180;5.812;2022-10-22T12:37:16;15.30;99.90
52849;DHT22;38714;53.180;5.812;2022-10-22T12:39:43;15.30;99.90
52849;DHT22;38714;53.180;5.812;2022-10-22T12:42:16;15.40;99.90
52849;DHT22;38714;53.180;5.812;2022-10-22T12:44:43;15.40;99.90
52849;DHT22;38714;53.180;5.812;2022-10-22T12:47:16;15.40;99.90
52849;DHT22;38714;53.180;5.812;2022-10-22T12:49:48;15.50;99.90
52849;DHT22;38714;53.180;5.812;2022-10-22T12:52:17;15.50;99.90
52849;DHT22;38714;53.180;5.812;2022-10-22T12:54:45;15.50;99.90
52849;DHT22;38714;53.180;5.812;2022-10-22T12:57:14;15.60;99.90
52849;DHT22;38714;53.180;5.812;2022-10-22T12:59:42;15.60;99.90
52849;DHT22;38714;53.180;5.812;2022-10-22T13:02:21;15.60;99.90
52849;DHT22;38714;53.180;5.812;2022-10-22T13:05:20;15.60;99.90
52849;DHT22;38714;53.180;5.812;2022-10-22T13:08:08;15.70;99.90
52849;DHT22;38714;53.180;5.812;2022-10-22T13:10:37;15.70;99.90
52849;DHT22;38714;53.180;5.812;2022-10-22T13:13:03;15.70;99.90
52849;DHT22;38714;53.180;5.812;2022-10-22T13:18:19;15.70;99.90
52849;DHT22;38714;53.180;5.812;2022-10-22T13:20:54;15.70;99.90
52849;DHT22;38714;53.180;5.812;2022-10-22T13:23:22;15.70;99.90
52849;DHT22;38714;53.180;5.812;2022-10-22T13:26:00;15.70;99.90
52849;DHT22;38714;53.180;5.812;2022-10-22T13:28:27;15.80;99.90
52849;DHT22;38714;53.180;5.812;2022-10-22T13:31:17;15.80;99.90
52849;DHT22;38714;53.180;5.812;2022-10-22T13:33:45;15.80;99.90
52849;DHT22;38714;53.180;5.812;2022-10-22T13:36:15;15.80;99.90
52849;DHT22;38714;53.180;5.812;2022-10-22T13:38:42;15.70;99.90
52849;DHT22;38714;53.180;5.812;2022-10-22T13:41:23;15.70;99.90
52849;DHT22;38714;53.180;5.812;2022-10-22T13:43:49;15.70;99.90
52849;DHT22;38714;53.180;5.812;2022-10-22T13:46:15;15.70;99.90
52849;DHT22;38714;53.180;5.812;2022-10-22T13:48:42;15.80;99.90
52849;DHT22;38714;53.180;5.812;2022-10-22T13:51:20;15.80;99.90
52849;DHT22;38714;53.180;5.812;2022-10-22T13:53:46;15.80;99.90
52849;DHT22;38714;53.180;5.812;2022-10-22T13:56:17;15.80;99.90
52849;DHT22;38714;53.180;5.812;2022-10-22T13:58:46;15.80;99.90
52849;DHT22;38714;53.180;5.812;2022-10-22T14:03:44;15.80;99.90
52849;DHT22;38714;53.180;5.812;2022-10-22T14:06:15;15.80;99.90
52849;DHT22;38714;53.180;5.812;2022-10-22T14:08:43;15.80;99.90
52849;DHT22;38714;53.180;5.812;2022-10-22T14:11:10;15.70;99.90
52849;DHT22;38714;53.180;5.812;2022-10-22T14:13:37;15.70;99.90
52849;DHT22;38714;53.180;5.812;2022-10-22T14:16:06;15.80;99.90
52849;DHT22;38714;53.180;5.812;2022-10-22T14:18:35;15.80;99.90
52849;DHT22;38714;53.180;5.812;2022-10-22T14:21:03;15.80;99.90
52849;DHT22;38714;53.180;5.812;2022-10-22T14:23:32;15.70;99.90
52849;DHT22;38714;53.180;5.812;2022-10-22T14:25:59;15.80;99.90
52849;DHT22;38714;53.180;5.812;2022-10-22T14:28:25;15.70;99.90
52849;DHT22;38714;53.180;5.812;2022-10-22T14:30:51;15.70;99.90
52849;DHT22;38714;53.180;5.812;2022-10-22T14:33:29;15.70;99.90
52849;DHT22;38714;53.180;5.812;2022-10-22T14:35:55;15.70;99.90
52849;DHT22;38714;53.180;5.812;2022-10-22T14:38:21;15.70;99.90
52849;DHT22;38714;53.180;5.812;2022-10-22T14:40:47;15.70;99.90
52849;DHT22;38714;53.180;5.812;2022-10-22T14:43:22;15.70;99.90
52849;DHT22;38714;53.180;5.812;2022-10-22T14:45:48;15.70;99.90
52849;DHT22;38714;53.180;5.812;2022-10-22T14:48:13;15.60;99.90
52849;DHT22;38714;53.180;5.812;2022-10-22T14:50:41;15.60;99.90
52849;DHT22;38714;53.180;5.812;2022-10-22T14:53:07;15.50;99.90
52849;DHT22;38714;53.180;5.812;2022-10-22T14:55:35;15.40;99.90
52849;DHT22;38714;53.180;5.812;2022-10-22T14:58:01;15.40;99.90
52849;DHT22;38714;53.180;5.812;2022-10-22T15:00:26;15.30;99.90
52849;DHT22;38714;53.180;5.812;2022-10-22T15:02:52;15.30;99.90
52849;DHT22;38714;53.180;5.812;2022-10-22T15:05:20;15.20;99.90
52849;DHT22;38714;53.180;5.812;2022-10-22T15:07:46;15.20;99.90
52849;DHT22;38714;53.180;5.812;2022-10-22T15:10:12;15.10;99.90
52849;DHT22;38714;53.180;5.812;2022-10-22T15:12:37;15.10;99.90
52849;DHT22;38714;53.180;5.812;2022-10-22T15:15:04;15.00;99.90
52849;DHT22;38714;53.180;5.812;2022-10-22T15:17:30;15.00;99.90
52849;DHT22;38714;53.180;5.812;2022-10-22T15:19:55;15.00;99.90
52849;DHT22;38714;53.180;5.812;2022-10-22T15:22:23;14.90;99.90
52849;DHT22;38714;53.180;5.812;2022-10-22T15:24:49;14.90;99.90
52849;DHT22;38714;53.180;5.812;2022-10-22T15:27:16;14.80;99.90
52849;DHT22;38714;53.180;5.812;2022-10-22T15:29:42;14.80;99.90
52849;DHT22;38714;53.180;5.812;2022-10-22T15:32:08;14.80;99.90
52849;DHT22;38714;53.180;5.812;2022-10-22T15:34:37;14.70;99.90
52849;DHT22;38714;53.180;5.812;2022-10-22T15:37:05;14.70;99.90
52849;DHT22;38714;53.180;5.812;2022-10-22T15:39:31;14.70;99.90
52849;DHT22;38714;53.180;5.812;2022-10-22T15:41:57;14.70;99.90
52849;DHT22;38714;53.180;5.812;2022-10-22T15:44:29;14.60;99.90
52849;DHT22;38714;53.180;5.812;2022-10-22T15:46:55;14.60;99.90
52849;DHT22;38714;53.180;5.812;2022-10-22T15:49:22;14.50;99.90
52849;DHT22;38714;53.180;5.812;2022-10-22T15:51:48;14.50;99.90
52849;DHT22;38714;53.180;5.812;2022-10-22T15:54:16;14.50;99.90
52849;DHT22;38714;53.180;5.812;2022-10-22T15:56:42;14.40;99.90
52849;DHT22;38714;53.180;5.812;2022-10-22T15:59:09;14.40;99.90
52849;DHT22;38714;53.180;5.812;2022-10-22T16:01:35;14.40;99.90
52849;DHT22;38714;53.180;5.812;2022-10-22T16:04:01;14.40;99.90
52849;DHT22;38714;53.180;5.812;2022-10-22T16:06:29;14.30;99.90
52849;DHT22;38714;53.180;5.812;2022-10-22T16:08:56;14.30;99.90
52849;DHT22;38714;53.180;5.812;2022-10-22T16:11:23;14.20;99.90
52849;DHT22;38714;53.180;5.812;2022-10-22T16:13:55;14.20;99.90
52849;DHT22;38714;53.180;5.812;2022-10-22T16:16:21;14.20;99.90
52849;DHT22;38714;53.180;5.812;2022-10-22T16:18:47;14.10;99.90
52849;DHT22;38714;53.180;5.812;2022-10-22T16:21:13;14.10;99.90
52849;DHT22;38714;53.180;5.812;2022-10-22T16:23:40;14.00;99.90
52849;DHT22;38714;53.180;5.812;2022-10-22T16:26:06;14.00;99.90
52849;DHT22;38714;53.180;5.812;2022-10-22T16:28:32;14.00;99.90
52849;DHT22;38714;53.180;5.812;2022-10-22T16:31:04;13.90;99.90
52849;DHT22;38714;53.180;5.812;2022-10-22T16:33:30;13.80;99.90
52849;DHT22;38714;53.180;5.812;2022-10-22T16:35:57;13.80;99.90
52849;DHT22;38714;53.180;5.812;2022-10-22T16:38:22;13.80;99.90
52849;DHT22;38714;53.180;5.812;2022-10-22T16:40:48;13.70;99.90
52849;DHT22;38714;53.180;5.812;2022-10-22T16:43:14;13.70;99.90
52849;DHT22;38714;53.180;5.812;2022-10-22T16:45:49;13.60;99.90
52849;DHT22;38714;53.180;5.812;2022-10-22T16:48:16;13.60;99.90
52849;DHT22;38714;53.180;5.812;2022-10-22T16:50:42;13.60;99.90
52849;DHT22;38714;53.180;5.812;2022-10-22T16:53:08;13.60;99.90
52849;DHT22;38714;53.180;5.812;2022-10-22T16:55:37;13.50;99.90
52849;DHT22;38714;53.180;5.812;2022-10-22T16:58:04;13.50;99.90
52849;DHT22;38714;53.180;5.812;2022-10-22T17:00:29;13.50;99.90
52849;DHT22;38714;53.180;5.812;2022-10-22T17:02:56;13.40;99.90
52849;DHT22;38714;53.180;5.812;2022-10-22T17:05:44;13.40;99.90
52849;DHT22;38714;53.180;5.812;2022-10-22T17:08:09;13.40;99.90
52849;DHT22;38714;53.180;5.812;2022-10-22T17:10:36;13.30;99.90
52849;DHT22;38714;53.180;5.812;2022-10-22T17:13:03;13.30;99.90
52849;DHT22;38714;53.180;5.812;2022-10-22T17:15:29;13.20;99.90